UNTT/TOF METAR and TAF weather

Enter ICAO airport designator
Station Type Date Time Source
UNTT METAR 2020/01/23 21:00 UTC NOAA

UNTT 232100Z 21010MPS 3100 -SHSN SCT011 BKN020CB M02/M04 Q1005 R21/490137 NOSIG RMK QFE739


Station Type Date Time Source
UNTT Decoded METAR 2020/01/23 21:00 UTC NOAA

Station name not available
Jan 23, 2020 - 04:00 PM EST / 2020.01.23 2100 UTC
Wind: from the SSW (210 degrees) at 22 MPH (19 KT):0
Visibility: 1 mile(s):0
Sky conditions: mostly cloudy
Weather: light snow showers; Cumulonimbus clouds observed
Temperature: 28 F (-2 C)
Windchill: 14 F (-10 C):1
Dew Point: 24 F (-4 C)
Relative Humidity: 86%
Pressure (altimeter): 29.68 in. Hg (1005 hPa)
ob: UNTT 232100Z 21010MPS 3100 -SHSN SCT011 BKN020CB M02/M04 Q1005 R21/490137 NOSIG RMK QFE739
cycle: 21

Station Type Date Time Source
UNTT TAF UTC NOAA

Error!

Example: see airport list